createdAt,value
2023-02-21T00:01:45.884Z,3.88
2023-02-21T00:04:31.316Z,3.78
2023-02-21T00:07:16.793Z,3.88
2023-02-21T00:10:02.282Z,3.78
2023-02-21T00:12:47.855Z,3.53
2023-02-21T00:15:33.205Z,4.28
2023-02-21T00:18:18.462Z,4.60
2023-02-21T00:21:04.154Z,3.92
2023-02-21T00:23:54.110Z,4.95
2023-02-21T00:26:40.394Z,4.20
2023-02-21T00:29:26.905Z,3.22
2023-02-21T00:32:12.886Z,2.92
2023-02-21T00:34:58.415Z,3.10
2023-02-21T00:37:44.016Z,4.70
2023-02-21T00:40:33.335Z,4.80
2023-02-21T00:43:18.645Z,3.40
2023-02-21T00:48:49.623Z,3.25
2023-02-21T00:51:35.354Z,3.88
2023-02-21T00:54:21.316Z,3.75
2023-02-21T00:57:06.750Z,2.92
2023-02-21T00:59:52.303Z,3.88
2023-02-21T01:02:37.555Z,3.05
2023-02-21T01:05:23.524Z,2.53
2023-02-21T01:08:08.896Z,2.95
2023-02-21T01:10:54.224Z,3.17
2023-02-21T01:13:39.718Z,3.80
2023-02-21T01:16:27.520Z,3.95
2023-02-21T01:19:13.034Z,3.25
2023-02-21T01:21:58.559Z,3.38
2023-02-21T01:24:43.939Z,3.70
2023-02-21T01:27:29.090Z,2.60
2023-02-21T01:30:14.496Z,3.08
2023-02-21T01:32:59.918Z,2.50
2023-02-21T01:35:45.377Z,2.35
2023-02-21T01:38:30.748Z,4.32
2023-02-21T01:41:16.474Z,3.03
2023-02-21T01:44:23.632Z,2.60
2023-02-21T01:47:09.198Z,2.80
2023-02-21T01:49:57.619Z,3.83
2023-02-21T01:52:43.679Z,4.45
2023-02-21T01:55:30.111Z,3.70
2023-02-21T01:58:16.115Z,2.75
2023-02-21T02:01:02.030Z,3.10
2023-02-21T02:03:51.982Z,2.85
2023-02-21T02:06:37.432Z,2.92
2023-02-21T02:09:39.948Z,2.95
2023-02-21T02:15:09.379Z,3.00
2023-02-21T02:18:16.556Z,2.55
2023-02-21T02:21:19.554Z,3.20
2023-02-21T02:24:11.008Z,4.18
2023-02-21T02:26:50.470Z,2.40
2023-02-21T02:29:24.342Z,2.33
2023-02-21T02:32:11.151Z,2.90
2023-02-21T02:34:49.447Z,3.50
2023-02-21T02:37:23.540Z,2.60
2023-02-21T02:40:21.267Z,3.80
2023-02-21T02:42:50.953Z,4.15
2023-02-21T02:45:22.847Z,2.97
2023-02-21T02:47:57.364Z,2.28
2023-02-21T02:50:25.650Z,3.25
2023-02-21T02:52:54.427Z,2.45
2023-02-21T02:55:37.619Z,2.50
2023-02-21T02:58:05.700Z,3.38
2023-02-21T03:00:34.506Z,2.78
2023-02-21T03:03:08.960Z,2.20
2023-02-21T03:05:57.444Z,3.33
2023-02-21T03:08:42.744Z,3.22
2023-02-21T03:11:18.721Z,2.50
2023-02-21T03:13:53.579Z,2.30
2023-02-21T03:16:40.608Z,2.38
2023-02-21T03:19:09.452Z,3.08
2023-02-21T03:21:44.860Z,2.80
2023-02-21T03:24:14.726Z,2.63
2023-02-21T03:26:44.752Z,2.05
2023-02-21T03:29:12.336Z,2.25
2023-02-21T03:31:47.606Z,2.25
2023-02-21T03:34:15.176Z,3.90
2023-02-21T03:36:42.293Z,2.28
2023-02-21T03:39:09.028Z,1.75
2023-02-21T03:41:35.691Z,2.13
2023-02-21T03:44:02.317Z,2.72
2023-02-21T03:46:28.996Z,1.95
2023-02-21T03:48:55.619Z,2.47
2023-02-21T03:51:22.442Z,2.28
2023-02-21T03:53:49.135Z,4.70
2023-02-21T03:56:15.765Z,2.00
2023-02-21T03:58:42.379Z,2.90
2023-02-21T04:01:08.983Z,2.10
2023-02-21T04:03:35.563Z,2.17
2023-02-21T04:06:04.041Z,3.85
2023-02-21T04:08:30.681Z,2.22
2023-02-21T04:10:57.278Z,2.80
2023-02-21T04:13:24.507Z,2.60
2023-02-21T04:15:51.309Z,1.98
2023-02-21T04:18:17.931Z,2.40
2023-02-21T04:20:46.237Z,2.05
2023-02-21T04:23:16.410Z,1.90
2023-02-21T04:25:43.075Z,1.90
2023-02-21T04:28:09.708Z,2.40
2023-02-21T04:30:36.374Z,2.35
2023-02-21T04:33:04.056Z,2.47
2023-02-21T04:35:31.046Z,3.10
2023-02-21T04:37:57.649Z,2.97
2023-02-21T04:40:24.241Z,2.13
2023-02-21T04:42:50.895Z,2.05
2023-02-21T04:45:17.603Z,2.08
2023-02-21T04:47:44.231Z,2.17
2023-02-21T04:50:10.878Z,1.75
2023-02-21T04:52:37.581Z,2.38
2023-02-21T04:55:04.421Z,2.03
2023-02-21T04:57:30.980Z,1.80
2023-02-21T04:59:58.732Z,1.70
2023-02-21T05:02:25.655Z,1.77
2023-02-21T05:04:52.475Z,2.83
2023-02-21T05:07:19.267Z,2.10
2023-02-21T05:09:45.921Z,1.92
2023-02-21T05:12:12.609Z,2.08
2023-02-21T05:14:39.948Z,2.00
2023-02-21T05:17:07.470Z,1.88
2023-02-21T05:19:34.272Z,2.40
2023-02-21T05:22:03.194Z,2.00
2023-02-21T05:24:30.769Z,1.63
2023-02-21T05:26:57.893Z,2.08
2023-02-21T05:29:24.919Z,2.15
2023-02-21T05:31:51.864Z,2.30
2023-02-21T05:34:19.628Z,1.50
2023-02-21T05:36:46.597Z,1.92
2023-02-21T05:39:13.350Z,2.30
2023-02-21T05:41:45.834Z,1.95
2023-02-21T05:44:12.426Z,1.90
2023-02-21T05:46:39.020Z,1.60
2023-02-21T05:49:05.669Z,2.10
2023-02-21T05:51:40.605Z,1.75
2023-02-21T05:54:08.924Z,1.48
2023-02-21T05:56:40.279Z,1.50
2023-02-21T05:59:07.498Z,2.08
2023-02-21T06:01:34.198Z,1.73
2023-02-21T06:04:00.908Z,1.90
2023-02-21T06:06:27.765Z,2.63
2023-02-21T06:08:54.416Z,5.25
2023-02-21T06:11:27.986Z,3.58
2023-02-21T06:13:56.620Z,3.42
2023-02-21T06:16:24.163Z,4.75
2023-02-21T06:18:52.811Z,4.75
2023-02-21T06:21:20.078Z,4.90
2023-02-21T06:23:47.458Z,2.60
2023-02-21T06:26:15.183Z,3.92
2023-02-21T06:28:41.920Z,3.88
2023-02-21T06:31:08.724Z,3.63
2023-02-21T06:33:35.429Z,5.70
2023-02-21T06:36:11.858Z,6.00
2023-02-21T06:38:38.827Z,6.47
2023-02-21T06:41:07.093Z,6.57
2023-02-21T06:43:36.353Z,6.35
2023-02-21T06:46:04.526Z,6.30
2023-02-21T06:48:31.844Z,6.20
2023-02-21T06:50:58.568Z,4.78
2023-02-21T06:53:25.199Z,6.90
2023-02-21T06:55:52.441Z,5.10
2023-02-21T06:58:19.055Z,5.10
2023-02-21T07:00:45.683Z,5.95
2023-02-21T07:03:12.368Z,5.90
2023-02-21T07:05:39.135Z,4.78
2023-02-21T07:08:05.878Z,5.95
2023-02-21T07:10:32.533Z,4.93
2023-02-21T07:12:59.131Z,4.47
2023-02-21T07:15:25.847Z,4.68
2023-02-21T07:17:52.449Z,4.85
2023-02-21T07:20:19.076Z,7.32
2023-02-21T07:22:45.690Z,4.15
2023-02-21T07:25:21.179Z,3.85
2023-02-21T07:27:48.846Z,8.35
2023-02-21T07:30:16.495Z,3.83
2023-02-21T07:32:43.429Z,4.20
2023-02-21T07:35:10.041Z,3.22
2023-02-21T07:37:36.677Z,3.50
2023-02-21T07:40:04.456Z,4.60
2023-02-21T07:42:31.157Z,4.32
2023-02-21T07:44:58.516Z,3.78
2023-02-21T07:47:27.171Z,6.43
2023-02-21T07:49:54.314Z,3.83
2023-02-21T07:52:22.334Z,4.03
2023-02-21T07:54:49.077Z,3.42
2023-02-21T07:57:17.036Z,5.63
2023-02-21T07:59:43.779Z,3.92
2023-02-21T08:02:12.510Z,5.07
2023-02-21T08:04:39.376Z,5.43
2023-02-21T08:07:06.913Z,4.05
2023-02-21T08:09:34.503Z,2.45
2023-02-21T08:12:01.750Z,3.83
2023-02-21T08:14:28.904Z,3.05
2023-02-21T08:16:55.465Z,5.50
2023-02-21T08:19:22.109Z,4.13
2023-02-21T08:21:49.632Z,3.10
2023-02-21T08:24:17.282Z,3.28
2023-02-21T08:26:45.401Z,3.60
2023-02-21T08:29:13.501Z,2.35
2023-02-21T08:31:41.582Z,2.17
2023-02-21T08:34:09.218Z,2.65
2023-02-21T08:36:38.908Z,4.72
2023-02-21T08:39:07.767Z,3.55
2023-02-21T08:41:43.297Z,2.42
2023-02-21T08:44:12.585Z,4.65
2023-02-21T08:46:40.640Z,4.50
2023-02-21T08:49:08.086Z,1.92
2023-02-21T08:51:35.096Z,4.57
2023-02-21T08:54:02.266Z,4.20
2023-02-21T08:56:30.651Z,3.50
2023-02-21T08:58:57.236Z,3.30
2023-02-21T09:01:30.089Z,3.90
2023-02-21T09:03:56.746Z,4.13
2023-02-21T09:06:23.417Z,2.58
2023-02-21T09:08:50.026Z,3.70
2023-02-21T09:11:16.933Z,1.98
2023-02-21T09:13:43.779Z,2.25
2023-02-21T09:16:10.516Z,2.75
2023-02-21T09:18:37.157Z,3.92
2023-02-21T09:21:03.930Z,2.13
2023-02-21T09:23:33.372Z,1.73
2023-02-21T09:25:59.984Z,2.08
2023-02-21T09:28:26.674Z,2.90
2023-02-21T09:30:53.323Z,3.35
2023-02-21T09:33:19.982Z,1.45
2023-02-21T09:35:46.735Z,2.63
2023-02-21T09:38:13.427Z,1.95
2023-02-21T09:40:50.240Z,2.65
2023-02-21T09:43:38.555Z,1.75
2023-02-21T09:46:17.946Z,3.50
2023-02-21T09:48:45.455Z,1.90
2023-02-21T09:51:14.340Z,2.65
2023-02-21T09:53:44.345Z,1.58
2023-02-21T09:56:31.836Z,1.98
2023-02-21T09:58:58.991Z,2.13
2023-02-21T10:02:03.958Z,2.00
2023-02-21T10:04:49.109Z,1.77
2023-02-21T10:07:41.018Z,2.17
2023-02-21T10:10:17.160Z,1.83
2023-02-21T10:12:58.398Z,2.17
2023-02-21T10:16:06.458Z,1.40
2023-02-21T10:18:51.908Z,1.65
2023-02-21T10:21:41.314Z,1.88
2023-02-21T10:24:14.525Z,2.15
2023-02-21T10:26:48.516Z,2.30
2023-02-21T10:29:23.295Z,2.90
2023-02-21T10:31:56.207Z,1.40
2023-02-21T10:34:29.165Z,2.25
2023-02-21T10:37:04.832Z,2.95
2023-02-21T10:39:39.122Z,2.10
2023-02-21T10:42:05.728Z,2.05
2023-02-21T10:44:35.715Z,1.55
2023-02-21T10:47:05.424Z,1.65
2023-02-21T10:49:40.733Z,1.60
2023-02-21T10:52:17.557Z,1.48
2023-02-21T10:55:03.715Z,1.90
2023-02-21T10:57:33.511Z,2.00
2023-02-21T11:00:01.888Z,1.98
2023-02-21T11:02:32.751Z,2.03
2023-02-21T11:05:10.342Z,2.05
2023-02-21T11:07:37.204Z,2.95
2023-02-21T11:10:38.040Z,1.70
2023-02-21T11:13:26.417Z,2.35
2023-02-21T11:16:11.202Z,1.70
2023-02-21T11:18:37.958Z,1.48
2023-02-21T11:21:19.076Z,1.70
2023-02-21T11:24:03.706Z,1.70
2023-02-21T11:26:36.462Z,2.25
2023-02-21T11:29:13.274Z,1.63
2023-02-21T11:31:40.367Z,1.92
2023-02-21T11:34:12.185Z,2.17
2023-02-21T11:36:40.834Z,1.60
2023-02-21T11:39:18.966Z,1.88
2023-02-21T11:41:48.436Z,1.63
2023-02-21T11:44:26.237Z,1.67
2023-02-21T11:47:12.439Z,1.88
2023-02-21T11:49:53.196Z,3.17
2023-02-21T11:52:29.467Z,2.35
2023-02-21T11:54:56.177Z,1.80
2023-02-21T11:57:40.868Z,1.95
2023-02-21T12:00:26.344Z,2.15
2023-02-21T12:02:56.262Z,1.63
2023-02-21T12:05:53.659Z,2.53
2023-02-21T12:08:36.661Z,1.63
2023-02-21T12:11:27.422Z,2.05
2023-02-21T12:14:19.142Z,1.70
2023-02-21T12:16:58.662Z,2.50
2023-02-21T12:19:57.881Z,1.48
2023-02-21T12:22:44.226Z,1.85
2023-02-21T12:25:23.739Z,2.03
2023-02-21T12:28:13.815Z,2.20
2023-02-21T12:31:10.083Z,1.38
2023-02-21T12:34:06.729Z,1.30
2023-02-21T12:36:52.006Z,1.67
2023-02-21T12:39:35.276Z,1.23
2023-02-21T12:42:14.061Z,1.48
2023-02-21T12:44:55.081Z,1.65
2023-02-21T12:47:30.130Z,1.80
2023-02-21T12:50:08.493Z,2.03
2023-02-21T12:52:43.751Z,1.20
2023-02-21T12:55:26.033Z,1.88
2023-02-21T13:00:35.605Z,1.42
2023-02-21T13:03:25.443Z,1.92
2023-02-21T13:06:02.416Z,1.85
2023-02-21T13:08:52.788Z,1.48
2023-02-21T13:11:54.324Z,1.20
2023-02-21T13:14:27.709Z,2.58
2023-02-21T13:16:54.705Z,1.33
2023-02-21T13:19:22.809Z,1.77
2023-02-21T13:22:41.791Z,1.98
2023-02-21T13:25:33.401Z,2.65
2023-02-21T13:28:20.381Z,1.65
2023-02-21T13:31:13.769Z,1.85
2023-02-21T13:33:46.043Z,2.40
2023-02-21T13:38:43.276Z,2.13
2023-02-21T13:41:16.846Z,1.50
2023-02-21T13:43:51.296Z,1.45
2023-02-21T13:46:31.692Z,1.30
2023-02-21T13:49:35.964Z,1.40
2023-02-21T13:52:23.718Z,1.45
2023-02-21T13:55:15.334Z,1.20
2023-02-21T13:57:43.574Z,2.13
2023-02-21T14:00:25.265Z,1.52
2023-02-21T14:02:54.992Z,1.23
2023-02-21T14:05:22.174Z,1.20
2023-02-21T14:07:52.244Z,1.33
2023-02-21T14:10:25.502Z,2.58
2023-02-21T14:12:56.968Z,1.10
2023-02-21T14:15:23.949Z,1.65
2023-02-21T14:17:52.403Z,1.30
2023-02-21T14:20:22.401Z,1.67
2023-02-21T14:22:53.863Z,1.90
2023-02-21T14:25:24.515Z,1.27
2023-02-21T14:27:53.895Z,1.30
2023-02-21T14:30:28.095Z,1.30
2023-02-21T14:33:06.948Z,1.92
2023-02-21T14:35:51.164Z,1.85
2023-02-21T14:38:24.033Z,0.90
2023-02-21T14:41:05.617Z,1.58
2023-02-21T14:43:38.197Z,1.33
2023-02-21T14:46:22.942Z,1.25
2023-02-21T14:48:58.618Z,2.47
2023-02-21T14:51:33.871Z,1.33
2023-02-21T14:54:19.461Z,1.38
2023-02-21T14:57:17.170Z,1.15
2023-02-21T15:00:19.672Z,1.15
2023-02-21T15:03:05.277Z,1.25
2023-02-21T15:05:40.289Z,1.55
2023-02-21T15:08:20.398Z,1.50
2023-02-21T15:10:49.081Z,1.27
2023-02-21T15:13:32.084Z,1.27
2023-02-21T15:16:03.064Z,1.40
2023-02-21T15:18:32.422Z,2.22
2023-02-21T15:21:11.128Z,1.40
2023-02-21T15:23:39.359Z,1.00
2023-02-21T15:26:24.397Z,0.98
2023-02-21T15:29:14.537Z,1.48
2023-02-21T15:31:42.674Z,1.10
2023-02-21T15:34:18.343Z,1.13
2023-02-21T15:37:19.456Z,1.23
2023-02-21T15:39:54.539Z,1.00
2023-02-21T15:42:22.940Z,1.10
2023-02-21T15:44:55.868Z,1.23
2023-02-21T15:47:24.440Z,1.85
2023-02-21T15:50:02.759Z,1.20
2023-02-21T15:52:41.645Z,1.13
2023-02-21T15:55:20.540Z,1.48
2023-02-21T15:57:59.819Z,1.35
2023-02-21T16:00:38.292Z,1.17
2023-02-21T16:03:27.698Z,1.20
2023-02-21T16:06:22.030Z,1.17
2023-02-21T16:08:59.305Z,1.15
2023-02-21T16:11:39.914Z,1.20
2023-02-21T16:14:15.430Z,1.83
2023-02-21T16:16:42.098Z,1.55
2023-02-21T16:19:09.067Z,2.47
2023-02-21T16:21:35.667Z,1.40
2023-02-21T16:24:26.822Z,1.30
2023-02-21T16:27:10.553Z,1.50
2023-02-21T16:29:37.400Z,0.88
2023-02-21T16:32:04.639Z,1.13
2023-02-21T16:34:33.227Z,1.30
2023-02-21T16:37:11.040Z,1.20
2023-02-21T16:39:37.609Z,2.55
2023-02-21T16:42:04.440Z,1.63
2023-02-21T16:44:31.053Z,1.35
2023-02-21T16:46:57.745Z,1.40
2023-02-21T16:49:24.610Z,2.92
2023-02-21T16:51:51.534Z,1.30
2023-02-21T16:54:18.203Z,1.52
2023-02-21T16:56:47.797Z,1.27
2023-02-21T16:59:17.202Z,1.30
2023-02-21T17:01:43.919Z,1.58
2023-02-21T17:04:19.987Z,1.40
2023-02-21T17:06:58.926Z,1.40
2023-02-21T17:09:28.270Z,1.52
2023-02-21T17:11:55.583Z,1.23
2023-02-21T17:14:22.465Z,1.17
2023-02-21T17:16:49.134Z,1.48
2023-02-21T17:19:18.217Z,1.38
2023-02-21T17:21:45.705Z,2.30
2023-02-21T17:26:40.753Z,10.60
2023-02-21T17:29:08.010Z,11.93
2023-02-21T17:31:34.799Z,7.85
2023-02-21T17:34:01.586Z,11.93
2023-02-21T17:36:29.117Z,5.93
2023-02-21T17:38:58.895Z,6.63
2023-02-21T17:41:26.440Z,7.57
2023-02-21T17:43:53.120Z,5.45
2023-02-21T17:46:20.915Z,5.85
2023-02-21T17:48:47.844Z,6.78
2023-02-21T17:51:23.018Z,8.13
2023-02-21T17:53:50.868Z,7.25
2023-02-21T17:56:20.989Z,8.23
2023-02-21T17:58:47.892Z,4.63
2023-02-21T18:01:17.421Z,3.92
2023-02-21T18:03:44.708Z,9.38
2023-02-21T18:06:11.512Z,4.18
2023-02-21T18:08:38.089Z,3.72
2023-02-21T18:11:04.883Z,10.23
2023-02-21T18:13:31.491Z,7.03
2023-02-21T18:15:59.633Z,5.85
2023-02-21T18:18:26.309Z,11.07
2023-02-21T18:20:52.921Z,4.97
2023-02-21T18:23:19.617Z,9.80
2023-02-21T18:25:46.692Z,22.07
2023-02-21T18:28:13.343Z,9.23
2023-02-21T18:30:40.056Z,9.73
2023-02-21T18:33:06.959Z,9.52
2023-02-21T18:35:33.559Z,10.00
2023-02-21T18:38:00.244Z,6.88
2023-02-21T18:40:34.049Z,10.60
2023-02-21T18:43:01.709Z,7.20
2023-02-21T18:45:28.390Z,9.18
2023-02-21T18:47:55.060Z,4.90
2023-02-21T18:50:21.741Z,8.60
2023-02-21T18:52:48.327Z,10.02
2023-02-21T18:55:15.085Z,9.40
2023-02-21T18:57:41.769Z,9.70
2023-02-21T19:00:09.927Z,8.57
2023-02-21T19:02:36.600Z,7.63
2023-02-21T19:05:03.239Z,5.45
2023-02-21T19:07:31.943Z,5.40
2023-02-21T19:09:58.676Z,5.38
2023-02-21T19:12:25.264Z,3.88
2023-02-21T19:17:18.444Z,5.85
2023-02-21T19:19:45.034Z,3.00
2023-02-21T19:22:11.605Z,4.05
2023-02-21T19:24:38.440Z,3.90
2023-02-21T19:27:05.181Z,4.40
2023-02-21T19:29:31.865Z,5.45
2023-02-21T19:31:58.790Z,6.78
2023-02-21T19:34:25.527Z,7.45
2023-02-21T19:36:52.146Z,7.60
2023-02-21T19:39:18.973Z,4.63
2023-02-21T19:41:45.634Z,4.97
2023-02-21T19:44:12.445Z,5.22
2023-02-21T19:46:39.285Z,4.85
2023-02-21T19:49:07.010Z,2.75
2023-02-21T19:51:34.239Z,7.55
2023-02-21T19:54:01.356Z,2.30
2023-02-21T19:56:28.396Z,7.50
2023-02-21T19:58:55.309Z,5.47
2023-02-21T20:01:22.530Z,5.95
2023-02-21T20:03:50.245Z,6.25
